Time;durP1;ratioP1;P1;durP2;ratioP2;P2;SDS_P1;SDS_P2;PMS_P1;PMS_P2;Temp;Humidity;BMP_temperature;BMP_pressure;BME280_temperature;BME280_humidity;BME280_pressure;Samples;Min_cycle;Max_cycle;Signal;HPM_P1;HPM_P2
2023/06/08 00:00:10;;;;;;;9.25;4.20;;;;;;;;;;4984669;28;20034;-70
2023/06/08 00:02:43;;;;;;;5.88;3.30;;;;;;;;;;4971930;28;20049;-70
2023/06/08 00:05:13;;;;;;;8.00;3.55;;;;;;;;;;4973702;28;20704;-70
2023/06/08 00:07:40;;;;;;;7.70;3.33;;;;;;;;;;4973824;28;20517;-71
2023/06/08 00:10:09;;;;;;;5.95;3.25;;;;;;;;;;4972436;28;20045;-71
2023/06/08 00:12:36;;;;;;;7.05;4.28;;;;;;;;;;4973642;28;20034;-70
2023/06/08 00:15:03;;;;;;;8.40;3.85;;;;;;;;;;4974047;28;20488;-70
2023/06/08 00:17:31;;;;;;;6.35;3.28;;;;;;;;;;4973523;28;20037;-70
2023/06/08 00:19:59;;;;;;;8.60;3.80;;;;;;;;;;4973068;28;20097;-70
2023/06/08 00:22:26;;;;;;;9.82;3.58;;;;;;;;;;4968862;28;20037;-70
2023/06/08 00:24:52;;;;;;;5.28;3.33;;;;;;;;;;4973272;28;20054;-70
2023/06/08 00:27:18;;;;;;;11.25;4.00;;;;;;;;;;4973294;28;20039;-70
2023/06/08 00:29:44;;;;;;;12.90;3.83;;;;;;;;;;4972750;28;20074;-70
2023/06/08 00:32:12;;;;;;;8.38;3.33;;;;;;;;;;5007947;28;20031;-70
2023/06/08 00:34:38;;;;;;;9.23;3.95;;;;;;;;;;4973469;28;20035;-70
2023/06/08 00:37:04;;;;;;;9.88;3.30;;;;;;;;;;4973356;28;20034;-70
2023/06/08 00:39:31;;;;;;;6.85;3.70;;;;;;;;;;4972694;28;20465;-70
2023/06/08 00:41:56;;;;;;;6.45;3.00;;;;;;;;;;4971656;28;20162;-71
2023/06/08 00:44:22;;;;;;;8.30;3.53;;;;;;;;;;4971660;28;20054;-70
2023/06/08 00:46:49;;;;;;;4.65;3.50;;;;;;;;;;4971640;28;20046;-70
2023/06/08 00:49:16;;;;;;;8.25;4.03;;;;;;;;;;4972666;28;20026;-70
2023/06/08 00:51:43;;;;;;;14.82;3.67;;;;;;;;;;4971721;28;20527;-70
2023/06/08 00:54:12;;;;;;;12.45;4.43;;;;;;;;;;4971658;28;20041;-70
2023/06/08 00:56:40;;;;;;;10.10;3.78;;;;;;;;;;4973077;28;20046;-70
2023/06/08 00:59:09;;;;;;;12.95;4.20;;;;;;;;;;4971099;28;20023;-71
2023/06/08 01:01:35;;;;;;;7.50;4.18;;;;;;;;;;4971522;28;20063;-71
2023/06/08 01:04:05;;;;;;;18.95;6.68;;;;;;;;;;4973714;28;20029;-70
2023/06/08 01:06:58;;;;;;;9.25;4.50;;;;;;;;;;4975384;28;20047;-70
2023/06/08 01:09:42;;;;;;;8.82;4.00;;;;;;;;;;4976183;28;20094;-71
2023/06/08 01:12:30;;;;;;;10.35;4.30;;;;;;;;;;4976639;28;20060;-70
2023/06/08 01:15:04;;;;;;;11.05;4.30;;;;;;;;;;4975326;28;20035;-70
2023/06/08 01:17:53;;;;;;;8.13;3.92;;;;;;;;;;4975257;28;20526;-70
2023/06/08 01:20:46;;;;;;;16.38;4.55;;;;;;;;;;4974511;28;20042;-70
2023/06/08 01:23:44;;;;;;;7.30;4.82;;;;;;;;;;4957102;28;20484;-70
2023/06/08 01:26:15;;;;;;;6.57;4.32;;;;;;;;;;4962596;28;20046;-70
2023/06/08 01:28:42;;;;;;;8.32;3.63;;;;;;;;;;4974640;28;20034;-71
2023/06/08 01:31:08;;;;;;;9.93;3.90;;;;;;;;;;4976383;28;20039;-71
2023/06/08 01:33:36;;;;;;;9.55;4.40;;;;;;;;;;4976258;28;20118;-70
2023/06/08 01:36:08;;;;;;;9.60;4.40;;;;;;;;;;4976043;28;20105;-71
2023/06/08 01:39:03;;;;;;;10.60;4.63;;;;;;;;;;4974506;28;20038;-71
2023/06/08 01:41:33;;;;;;;10.05;4.03;;;;;;;;;;4974859;28;20061;-70
2023/06/08 01:44:00;;;;;;;10.80;4.45;;;;;;;;;;4976045;28;20061;-70
2023/06/08 01:46:29;;;;;;;6.95;3.88;;;;;;;;;;4976087;28;20105;-71
2023/06/08 01:48:58;;;;;;;14.40;4.40;;;;;;;;;;4974182;28;20035;-70
2023/06/08 01:51:25;;;;;;;10.73;4.15;;;;;;;;;;4974613;28;20023;-70
2023/06/08 01:54:01;;;;;;;7.38;3.97;;;;;;;;;;4976082;28;20101;-70
2023/06/08 01:56:31;;;;;;;10.38;4.10;;;;;;;;;;4974625;28;20031;-70
2023/06/08 01:58:57;;;;;;;6.22;3.63;;;;;;;;;;4974156;28;20035;-70
2023/06/08 02:01:23;;;;;;;8.40;4.10;;;;;;;;;;4974306;28;20030;-70
2023/06/08 02:03:48;;;;;;;7.53;3.80;;;;;;;;;;4975560;28;20038;-70
2023/06/08 02:06:15;;;;;;;11.43;4.25;;;;;;;;;;4974264;28;20484;-70
2023/06/08 02:08:41;;;;;;;7.05;3.65;;;;;;;;;;4973812;28;20489;-70
2023/06/08 02:11:08;;;;;;;8.93;3.58;;;;;;;;;;4974202;28;20115;-70
2023/06/08 02:13:40;;;;;;;9.80;4.05;;;;;;;;;;4974948;28;20515;-70
2023/06/08 02:16:06;;;;;;;10.30;4.30;;;;;;;;;;4973822;28;20451;-70
2023/06/08 02:18:35;;;;;;;8.15;3.83;;;;;;;;;;4975279;28;20026;-71
2023/06/08 02:21:04;;;;;;;10.85;3.78;;;;;;;;;;4973856;28;20057;-70
2023/06/08 02:23:30;;;;;;;13.20;4.13;;;;;;;;;;4975218;28;20138;-71
2023/06/08 02:25:57;;;;;;;7.60;3.80;;;;;;;;;;4973868;28;20050;-70
2023/06/08 02:28:23;;;;;;;11.70;4.38;;;;;;;;;;4973514;28;20030;-70
2023/06/08 02:30:49;;;;;;;10.32;4.13;;;;;;;;;;4973180;28;20105;-70
2023/06/08 02:33:14;;;;;;;8.30;4.10;;;;;;;;;;4973751;28;20026;-70
2023/06/08 02:35:40;;;;;;;9.60;4.45;;;;;;;;;;4975153;28;20126;-70
2023/06/08 02:38:06;;;;;;;10.52;4.30;;;;;;;;;;4973535;28;20504;-70
2023/06/08 02:40:33;;;;;;;6.22;3.78;;;;;;;;;;4973495;28;20031;-70
2023/06/08 02:42:59;;;;;;;10.23;4.40;;;;;;;;;;4975145;28;20045;-70
2023/06/08 02:45:26;;;;;;;10.45;4.38;;;;;;;;;;4973558;28;20026;-70
2023/06/08 02:47:54;;;;;;;5.57;3.65;;;;;;;;;;4973407;28;20027;-70
2023/06/08 02:50:22;;;;;;;12.05;4.40;;;;;;;;;;4973831;28;20050;-70
2023/06/08 02:52:48;;;;;;;9.82;4.03;;;;;;;;;;4974998;28;20130;-70
2023/06/08 02:55:14;;;;;;;12.20;4.28;;;;;;;;;;4973558;28;20035;-71
2023/06/08 02:57:40;;;;;;;11.18;4.07;;;;;;;;;;4973376;28;20503;-70
2023/06/08 03:00:12;;;;;;;9.02;4.25;;;;;;;;;;4973025;28;20031;-71
2023/06/08 03:03:00;;;;;;;9.93;4.38;;;;;;;;;;4974967;28;20050;-70
2023/06/08 03:05:28;;;;;;;10.10;4.40;;;;;;;;;;4973308;28;20034;-70
2023/06/08 03:07:58;;;;;;;10.88;4.28;;;;;;;;;;4973108;28;20031;-70
2023/06/08 03:10:25;;;;;;;6.97;3.90;;;;;;;;;;4973773;28;20039;-71
2023/06/08 03:12:51;;;;;;;8.55;3.85;;;;;;;;;;4977485;28;20023;-71
2023/06/08 03:15:22;;;;;;;5.68;4.00;;;;;;;;;;4977241;28;20061;-71
2023/06/08 03:17:51;;;;;;;7.78;4.47;;;;;;;;;;4973312;28;20026;-70
2023/06/08 03:20:18;;;;;;;13.95;5.45;;;;;;;;;;4972473;28;20109;-71
2023/06/08 03:22:52;;;;;;;6.97;4.10;;;;;;;;;;4971131;28;20034;-70
2023/06/08 03:25:21;;;;;;;13.95;4.88;;;;;;;;;;4988163;28;20031;-71
2023/06/08 03:27:50;;;;;;;18.30;5.18;;;;;;;;;;4972327;28;20027;-70
2023/06/08 03:30:16;;;;;;;10.75;4.22;;;;;;;;;;5004974;28;20057;-72
2023/06/08 03:32:48;;;;;;;19.33;5.20;;;;;;;;;;4972675;28;20027;-70
2023/06/08 03:35:18;;;;;;;12.55;4.88;;;;;;;;;;4972292;28;20149;-70
2023/06/08 03:37:47;;;;;;;12.43;4.78;;;;;;;;;;4988355;28;20504;-71
2023/06/08 03:40:13;;;;;;;9.82;4.35;;;;;;;;;;4972170;28;20109;-71
2023/06/08 03:42:42;;;;;;;22.25;6.00;;;;;;;;;;4972054;28;20049;-71
2023/06/08 03:45:08;;;;;;;18.23;4.32;;;;;;;;;;4956032;28;20031;-70
2023/06/08 03:47:34;;;;;;;10.43;4.40;;;;;;;;;;4972895;28;20066;-70
2023/06/08 03:50:01;;;;;;;12.05;4.95;;;;;;;;;;4971695;28;20019;-70
2023/06/08 03:52:28;;;;;;;6.88;4.43;;;;;;;;;;4988161;28;20042;-73
2023/06/08 03:54:53;;;;;;;8.77;4.57;;;;;;;;;;4972179;28;20023;-72
2023/06/08 03:57:21;;;;;;;12.38;4.72;;;;;;;;;;4972081;28;20034;-70
2023/06/08 03:59:48;;;;;;;12.85;5.55;;;;;;;;;;4965922;28;20045;-70
2023/06/08 04:02:14;;;;;;;8.77;4.93;;;;;;;;;;4970004;28;20038;-72
2023/06/08 04:04:40;;;;;;;14.75;4.97;;;;;;;;;;4969881;28;20315;-71
2023/06/08 04:07:05;;;;;;;10.85;4.40;;;;;;;;;;4969736;28;20073;-70
2023/06/08 04:09:31;;;;;;;15.10;5.05;;;;;;;;;;4969636;28;20031;-72
2023/06/08 04:11:58;;;;;;;15.23;5.47;;;;;;;;;;4985942;28;20117;-70
2023/06/08 04:14:25;;;;;;;17.80;5.25;;;;;;;;;;4964545;28;20034;-72
2023/06/08 04:16:53;;;;;;;10.07;4.82;;;;;;;;;;4986852;28;20126;-70
2023/06/08 04:19:20;;;;;;;9.35;4.47;;;;;;;;;;4971461;28;20041;-70
2023/06/08 04:21:48;;;;;;;45.05;7.85;;;;;;;;;;4971570;28;20081;-70
2023/06/08 04:24:16;;;;;;;18.80;5.70;;;;;;;;;;4987681;28;20030;-70
2023/06/08 04:26:42;;;;;;;29.63;7.32;;;;;;;;;;4963401;28;20030;-71
2023/06/08 04:29:08;;;;;;;11.43;5.32;;;;;;;;;;4971493;28;20053;-72
2023/06/08 04:31:37;;;;;;;25.65;6.55;;;;;;;;;;4987667;28;20043;-70
2023/06/08 04:34:04;;;;;;;28.27;7.57;;;;;;;;;;4968548;28;20027;-71
2023/06/08 04:36:31;;;;;;;29.60;8.10;;;;;;;;;;4972473;28;20026;-71
2023/06/08 04:38:58;;;;;;;20.95;6.28;;;;;;;;;;4971179;28;20025;-71
2023/06/08 04:41:28;;;;;;;30.17;7.15;;;;;;;;;;4971442;28;20126;-70
2023/06/08 04:44:01;;;;;;;10.20;5.60;;;;;;;;;;4987548;28;20042;-71
2023/06/08 04:46:33;;;;;;;10.38;5.10;;;;;;;;;;4987223;28;20046;-70
2023/06/08 04:48:59;;;;;;;14.85;5.97;;;;;;;;;;4987041;28;20118;-71
2023/06/08 04:51:29;;;;;;;17.80;6.32;;;;;;;;;;4987419;28;20041;-70
2023/06/08 04:54:04;;;;;;;27.20;7.07;;;;;;;;;;4971308;28;20038;-70
2023/06/08 04:56:33;;;;;;;25.52;7.43;;;;;;;;;;4971440;28;20550;-72
2023/06/08 04:59:01;;;;;;;20.95;7.22;;;;;;;;;;4972374;28;20039;-70
2023/06/08 05:01:28;;;;;;;12.57;5.93;;;;;;;;;;4971625;28;20039;-75
2023/06/08 05:03:54;;;;;;;9.38;5.68;;;;;;;;;;4973613;28;20022;-74
2023/06/08 05:06:20;;;;;;;14.77;6.18;;;;;;;;;;4986942;28;20094;-74
2023/06/08 05:08:46;;;;;;;13.45;5.53;;;;;;;;;;4972186;28;20483;-75
2023/06/08 05:11:13;;;;;;;12.45;5.63;;;;;;;;;;4971820;28;20031;-74
2023/06/08 05:13:40;;;;;;;10.48;4.85;;;;;;;;;;4964874;28;20094;-75
2023/06/08 05:16:05;;;;;;;10.57;5.30;;;;;;;;;;4967468;28;20034;-75
2023/06/08 05:18:31;;;;;;;9.48;5.43;;;;;;;;;;4972077;28;20057;-75
2023/06/08 05:20:57;;;;;;;11.82;4.60;;;;;;;;;;4986972;28;20031;-75
2023/06/08 05:23:23;;;;;;;8.75;4.55;;;;;;;;;;4972538;28;20362;-75
2023/06/08 05:25:49;;;;;;;10.93;4.50;;;;;;;;;;4986558;28;20043;-76
2023/06/08 05:28:14;;;;;;;7.63;4.78;;;;;;;;;;4986999;28;20484;-74
2023/06/08 05:30:40;;;;;;;13.05;5.22;;;;;;;;;;4971742;28;20142;-75
2023/06/08 05:33:06;;;;;;;14.75;5.55;;;;;;;;;;4970983;28;20037;-76
2023/06/08 05:35:32;;;;;;;11.55;5.25;;;;;;;;;;4972297;28;20069;-75
2023/06/08 05:37:57;;;;;;;8.90;4.78;;;;;;;;;;4971775;28;20058;-75
2023/06/08 05:40:25;;;;;;;9.30;5.10;;;;;;;;;;4972455;28;20345;-74
2023/06/08 05:42:52;;;;;;;11.90;4.97;;;;;;;;;;4971140;28;20038;-76
2023/06/08 05:45:18;;;;;;;9.80;4.95;;;;;;;;;;4970931;28;20047;-77
2023/06/08 05:47:44;;;;;;;8.65;4.60;;;;;;;;;;4971994;28;20035;-76
2023/06/08 05:50:10;;;;;;;13.65;5.47;;;;;;;;;;4973878;28;20534;-76
2023/06/08 05:52:36;;;;;;;8.32;4.57;;;;;;;;;;4991945;28;20121;-76
2023/06/08 05:55:02;;;;;;;6.38;4.45;;;;;;;;;;4994213;28;20034;-77
2023/06/08 05:57:27;;;;;;;8.75;4.55;;;;;;;;;;4995047;28;20032;-75
2023/06/08 05:59:53;;;;;;;10.43;4.72;;;;;;;;;;4985780;28;20027;-75
2023/06/08 06:02:19;;;;;;;8.80;4.75;;;;;;;;;;4974195;28;20023;-75
2023/06/08 06:04:45;;;;;;;7.90;4.18;;;;;;;;;;4990156;28;20089;-73
2023/06/08 06:07:10;;;;;;;9.75;4.75;;;;;;;;;;4972518;28;20381;-76
2023/06/08 06:09:36;;;;;;;7.20;4.68;;;;;;;;;;4973019;28;20476;-74
2023/06/08 06:12:02;;;;;;;9.82;4.93;;;;;;;;;;4975513;28;20027;-75
2023/06/08 06:14:37;;;;;;;6.70;4.40;;;;;;;;;;4975662;28;20041;-76
2023/06/08 06:17:04;;;;;;;6.57;4.78;;;;;;;;;;4974921;28;20038;-74
2023/06/08 06:19:35;;;;;;;13.45;4.97;;;;;;;;;;4975021;28;20022;-77
2023/06/08 06:22:06;;;;;;;6.32;4.72;;;;;;;;;;4988974;28;20062;-74
2023/06/08 06:24:31;;;;;;;13.00;5.90;;;;;;;;;;4976495;28;20105;-75
2023/06/08 06:26:58;;;;;;;11.10;5.00;;;;;;;;;;4974631;28;20026;-74
2023/06/08 06:29:24;;;;;;;10.38;5.03;;;;;;;;;;4974935;28;20071;-74
2023/06/08 06:31:50;;;;;;;11.23;5.20;;;;;;;;;;4973523;28;20086;-73
2023/06/08 06:34:16;;;;;;;7.40;4.60;;;;;;;;;;4974804;28;20500;-73
2023/06/08 06:36:42;;;;;;;9.23;4.60;;;;;;;;;;4974730;28;20122;-74
2023/06/08 06:39:09;;;;;;;10.52;4.72;;;;;;;;;;4974663;28;20051;-74
2023/06/08 06:41:35;;;;;;;11.27;5.38;;;;;;;;;;4975382;28;20037;-73
2023/06/08 06:44:03;;;;;;;7.65;5.35;;;;;;;;;;4976219;28;20061;-76
2023/06/08 06:46:28;;;;;;;9.52;5.80;;;;;;;;;;4990889;28;20039;-75
2023/06/08 06:48:55;;;;;;;9.70;5.22;;;;;;;;;;4973995;28;20041;-76
2023/06/08 06:51:21;;;;;;;10.32;5.35;;;;;;;;;;4973907;28;20034;-75
2023/06/08 06:53:47;;;;;;;10.98;5.35;;;;;;;;;;4974068;28;20084;-73
2023/06/08 06:56:13;;;;;;;11.15;5.43;;;;;;;;;;4972562;28;20023;-74
2023/06/08 06:58:44;;;;;;;10.20;5.20;;;;;;;;;;4972153;28;20527;-74
2023/06/08 07:01:15;;;;;;;12.20;5.57;;;;;;;;;;4974594;28;20041;-74
2023/06/08 07:03:43;;;;;;;12.55;5.72;;;;;;;;;;4973955;28;20053;-74
2023/06/08 07:06:10;;;;;;;10.88;5.93;;;;;;;;;;4974083;28;20034;-75
2023/06/08 07:08:36;;;;;;;9.05;5.65;;;;;;;;;;4971406;28;20041;-73
2023/06/08 07:11:02;;;;;;;10.45;6.78;;;;;;;;;;4971739;28;20488;-73
2023/06/08 07:13:28;;;;;;;9.63;5.45;;;;;;;;;;4988548;28;20047;-73
2023/06/08 07:15:54;;;;;;;12.25;5.80;;;;;;;;;;4974292;28;20031;-72
2023/06/08 07:18:20;;;;;;;13.20;6.57;;;;;;;;;;4973309;28;20035;-72
2023/06/08 07:20:46;;;;;;;12.07;7.45;;;;;;;;;;4972231;28;20400;-73
2023/06/08 07:23:12;;;;;;;15.75;6.75;;;;;;;;;;4973381;28;20046;-72
2023/06/08 07:25:38;;;;;;;15.00;7.90;;;;;;;;;;4973202;28;20027;-73
2023/06/08 07:28:05;;;;;;;14.20;6.50;;;;;;;;;;4988514;28;20039;-73
2023/06/08 07:30:32;;;;;;;11.35;6.95;;;;;;;;;;4972892;28;20599;-73
2023/06/08 07:32:58;;;;;;;13.60;6.75;;;;;;;;;;4971898;28;20126;-73
2023/06/08 07:35:24;;;;;;;12.27;6.55;;;;;;;;;;4973749;28;20484;-72
2023/06/08 07:37:53;;;;;;;10.90;5.57;;;;;;;;;;4971417;28;20075;-72
2023/06/08 07:40:19;;;;;;;11.50;5.60;;;;;;;;;;5004338;28;20026;-73
2023/06/08 07:42:46;;;;;;;11.23;6.35;;;;;;;;;;4973001;28;20031;-73
2023/06/08 07:45:13;;;;;;;10.35;5.80;;;;;;;;;;4974324;28;20103;-72
2023/06/08 07:47:42;;;;;;;12.43;5.97;;;;;;;;;;4992146;28;20069;-72
2023/06/08 07:50:08;;;;;;;11.57;6.28;;;;;;;;;;4992095;28;20038;-71
2023/06/08 07:52:35;;;;;;;11.15;5.32;;;;;;;;;;4992468;28;20634;-73
2023/06/08 07:55:01;;;;;;;11.18;5.70;;;;;;;;;;4992109;28;20023;-74
2023/06/08 07:57:29;;;;;;;10.35;5.88;;;;;;;;;;4992205;28;20038;-71
2023/06/08 07:59:55;;;;;;;19.30;6.60;;;;;;;;;;4991681;28;20018;-72
2023/06/08 08:02:21;;;;;;;13.93;7.03;;;;;;;;;;4992264;28;20049;-72
2023/06/08 08:04:47;;;;;;;13.13;7.35;;;;;;;;;;4991880;28;20022;-73
2023/06/08 08:07:14;;;;;;;10.68;6.03;;;;;;;;;;4992368;28;20084;-72
2023/06/08 08:09:41;;;;;;;17.52;7.90;;;;;;;;;;4991896;28;20377;-73
2023/06/08 08:12:09;;;;;;;12.02;7.15;;;;;;;;;;4991445;28;20038;-73
2023/06/08 08:14:35;;;;;;;15.85;7.15;;;;;;;;;;4991854;28;20026;-71
2023/06/08 08:17:05;;;;;;;12.27;7.53;;;;;;;;;;4991786;28;20454;-72
2023/06/08 08:19:31;;;;;;;10.43;6.18;;;;;;;;;;4992028;28;20037;-72
2023/06/08 08:21:56;;;;;;;17.55;7.65;;;;;;;;;;4991810;28;20026;-71
2023/06/08 08:24:22;;;;;;;10.48;6.72;;;;;;;;;;4991904;28;20034;-72
2023/06/08 08:26:53;;;;;;;10.45;6.90;;;;;;;;;;4991852;28;20139;-72
2023/06/08 08:29:19;;;;;;;9.57;5.10;;;;;;;;;;4991255;28;20788;-71
2023/06/08 08:31:44;;;;;;;8.63;4.93;;;;;;;;;;4991657;28;20105;-72
2023/06/08 08:34:11;;;;;;;7.55;4.82;;;;;;;;;;4992062;28;20113;-74
2023/06/08 08:36:38;;;;;;;8.65;5.28;;;;;;;;;;4991607;28;20065;-74
2023/06/08 08:39:04;;;;;;;8.73;5.80;;;;;;;;;;4991518;28;20038;-74
2023/06/08 08:41:33;;;;;;;10.38;5.85;;;;;;;;;;4991450;28;20030;-74
2023/06/08 08:44:03;;;;;;;12.57;4.97;;;;;;;;;;4991596;28;20126;-74
2023/06/08 08:46:37;;;;;;;7.68;5.38;;;;;;;;;;4991296;28;20030;-74
2023/06/08 08:49:08;;;;;;;7.38;5.00;;;;;;;;;;4991526;28;20113;-72
2023/06/08 08:51:39;;;;;;;7.47;5.28;;;;;;;;;;4991497;28;20125;-73
2023/06/08 08:54:07;;;;;;;9.65;5.20;;;;;;;;;;4989988;28;20141;-74
2023/06/08 08:56:37;;;;;;;8.00;4.82;;;;;;;;;;5001833;28;20026;-73
2023/06/08 08:59:04;;;;;;;7.57;5.28;;;;;;;;;;4971961;28;20030;-74
2023/06/08 09:01:32;;;;;;;8.20;5.38;;;;;;;;;;4986937;28;20484;-73
2023/06/08 09:03:59;;;;;;;9.18;5.80;;;;;;;;;;5003293;28;20042;-74
2023/06/08 09:06:26;;;;;;;7.95;5.20;;;;;;;;;;4971977;28;20063;-74
2023/06/08 09:08:51;;;;;;;12.07;5.40;;;;;;;;;;4971528;28;20038;-74
2023/06/08 09:11:17;;;;;;;7.63;5.50;;;;;;;;;;4971754;28;20027;-74
2023/06/08 09:13:43;;;;;;;7.93;5.50;;;;;;;;;;4972248;28;20046;-74
2023/06/08 09:16:21;;;;;;;8.05;5.30;;;;;;;;;;4969995;28;20058;-74
2023/06/08 09:19:04;;;;;;;9.63;5.70;;;;;;;;;;4971895;28;20023;-73
2023/06/08 09:21:30;;;;;;;7.70;4.90;;;;;;;;;;4971810;28;20088;-74
2023/06/08 09:24:12;;;;;;;9.68;4.75;;;;;;;;;;4972965;28;20535;-73
2023/06/08 09:26:50;;;;;;;11.27;5.25;;;;;;;;;;4976025;28;20081;-73
2023/06/08 09:29:44;;;;;;;10.25;4.72;;;;;;;;;;4975475;28;20035;-73
2023/06/08 09:32:14;;;;;;;7.63;4.65;;;;;;;;;;4974597;28;20053;-73
2023/06/08 09:34:58;;;;;;;8.07;4.05;;;;;;;;;;4975310;28;20037;-72
2023/06/08 09:37:31;;;;;;;11.10;4.28;;;;;;;;;;4956403;28;20126;-72
2023/06/08 09:40:04;;;;;;;9.52;4.63;;;;;;;;;;4956079;28;20096;-72
2023/06/08 09:42:53;;;;;;;9.13;3.47;;;;;;;;;;4956780;28;20074;-73
2023/06/08 09:45:20;;;;;;;19.63;5.32;;;;;;;;;;4955993;28;20360;-73
2023/06/08 09:47:47;;;;;;;5.35;3.65;;;;;;;;;;4956761;28;20046;-73
2023/06/08 09:50:14;;;;;;;8.98;3.20;;;;;;;;;;4965690;28;20031;-75
2023/06/08 09:52:41;;;;;;;11.82;3.85;;;;;;;;;;4975212;28;20037;-74
2023/06/08 09:55:08;;;;;;;22.35;4.80;;;;;;;;;;4975747;28;20488;-74
2023/06/08 09:57:36;;;;;;;31.73;5.57;;;;;;;;;;4975663;28;20027;-73
2023/06/08 10:02:46;;;;;;;26.10;5.60;;;;;;;;;;4993912;28;20073;-73
2023/06/08 10:05:15;;;;;;;25.00;5.22;;;;;;;;;;4993165;28;20034;-74
2023/06/08 10:07:44;;;;;;;8.88;3.78;;;;;;;;;;4994454;28;20407;-72
2023/06/08 10:10:19;;;;;;;11.27;4.18;;;;;;;;;;4992589;28;20084;-74
2023/06/08 10:12:45;;;;;;;8.10;4.00;;;;;;;;;;4993999;28;20564;-74
2023/06/08 10:15:14;;;;;;;9.85;3.97;;;;;;;;;;4979031;28;20122;-75
2023/06/08 10:17:41;;;;;;;7.55;3.85;;;;;;;;;;4973777;28;20073;-73
2023/06/08 10:20:07;;;;;;;8.73;4.03;;;;;;;;;;4973566;28;20031;-72
2023/06/08 10:22:35;;;;;;;10.68;3.88;;;;;;;;;;4974833;28;20477;-73
2023/06/08 10:25:03;;;;;;;6.63;3.47;;;;;;;;;;4973306;28;20081;-75
2023/06/08 10:27:32;;;;;;;7.38;3.58;;;;;;;;;;4974017;28;20043;-73
2023/06/08 10:30:03;;;;;;;8.88;4.20;;;;;;;;;;4974207;28;20057;-73
2023/06/08 10:32:34;;;;;;;14.68;4.55;;;;;;;;;;4974623;28;20066;-74
2023/06/08 10:35:06;;;;;;;13.20;4.38;;;;;;;;;;4974222;28;20038;-74
2023/06/08 10:37:36;;;;;;;7.32;3.90;;;;;;;;;;4974751;28;20197;-73
2023/06/08 10:40:10;;;;;;;8.55;4.18;;;;;;;;;;4974386;28;20027;-74
2023/06/08 10:42:36;;;;;;;7.60;4.18;;;;;;;;;;4973871;28;20113;-75
2023/06/08 10:45:04;;;;;;;7.90;3.53;;;;;;;;;;4973143;28;20031;-74
2023/06/08 10:47:31;;;;;;;8.98;3.38;;;;;;;;;;4974350;28;20050;-75
2023/06/08 10:50:03;;;;;;;12.05;4.10;;;;;;;;;;4974059;28;20034;-74
2023/06/08 10:52:38;;;;;;;5.05;3.58;;;;;;;;;;4974069;28;20031;-76
2023/06/08 10:55:06;;;;;;;7.53;3.20;;;;;;;;;;4974292;28;20047;-74
2023/06/08 10:57:49;;;;;;;10.40;3.65;;;;;;;;;;4974322;28;20104;-74
2023/06/08 11:00:20;;;;;;;;;;;;;;;;;;4971587;28;20082;-74
2023/06/08 11:02:49;;;;;;;5.55;2.92;;;;;;;;;;4971417;28;19914;-77
2023/06/08 11:05:15;;;;;;;5.95;2.90;;;;;;;;;;4970004;28;20084;-75
2023/06/08 11:07:41;;;;;;;4.03;2.75;;;;;;;;;;4971244;28;20027;-73
2023/06/08 11:10:07;;;;;;;6.50;2.90;;;;;;;;;;4971375;28;20106;-75
2023/06/08 11:12:33;;;;;;;7.68;3.88;;;;;;;;;;4971578;28;20620;-74
2023/06/08 11:15:00;;;;;;;10.27;3.80;;;;;;;;;;4971558;28;20102;-75
2023/06/08 11:17:26;;;;;;;6.63;3.22;;;;;;;;;;4971534;28;20480;-74
2023/06/08 11:19:52;;;;;;;7.93;3.78;;;;;;;;;;4970762;28;20077;-74
2023/06/08 11:22:21;;;;;;;5.68;3.33;;;;;;;;;;4970102;28;20046;-73
2023/06/08 11:24:47;;;;;;;6.35;3.55;;;;;;;;;;4970856;28;20023;-73
2023/06/08 11:27:17;;;;;;;6.25;3.15;;;;;;;;;;4972064;28;20091;-74
2023/06/08 11:29:46;;;;;;;8.88;2.97;;;;;;;;;;4971323;28;20644;-74
2023/06/08 11:32:15;;;;;;;4.55;2.95;;;;;;;;;;4973587;28;20109;-74
2023/06/08 11:34:45;;;;;;;4.78;2.92;;;;;;;;;;4973601;28;20037;-73
2023/06/08 11:37:16;;;;;;;7.00;3.33;;;;;;;;;;4971924;28;20089;-74
2023/06/08 11:39:48;;;;;;;6.63;4.20;;;;;;;;;;4968530;28;20031;-74
2023/06/08 11:42:14;;;;;;;7.30;3.10;;;;;;;;;;4972873;28;20448;-73
2023/06/08 11:44:40;;;;;;;10.98;3.85;;;;;;;;;;4973406;28;20035;-73
2023/06/08 11:47:08;;;;;;;6.10;3.20;;;;;;;;;;4972596;28;20038;-73
2023/06/08 11:49:57;;;;;;;4.15;2.78;;;;;;;;;;4970751;28;20053;-74
2023/06/08 11:52:27;;;;;;;9.57;5.22;;;;;;;;;;4973193;28;20030;-74
2023/06/08 11:55:13;;;;;;;8.80;3.55;;;;;;;;;;4973459;28;20081;-74
2023/06/08 11:57:59;;;;;;;12.60;3.95;;;;;;;;;;4966825;28;20044;-74
2023/06/08 12:00:29;;;;;;;6.68;3.10;;;;;;;;;;4973154;28;20489;-75
2023/06/08 12:02:56;;;;;;;8.07;3.30;;;;;;;;;;4987986;28;20436;-74
2023/06/08 12:05:33;;;;;;;4.90;2.75;;;;;;;;;;4972720;28;20498;-75
2023/06/08 12:08:25;;;;;;;6.07;3.38;;;;;;;;;;4971695;28;20129;-75
2023/06/08 12:10:52;;;;;;;8.88;3.50;;;;;;;;;;4973836;28;20055;-75
2023/06/08 12:13:19;;;;;;;5.60;2.72;;;;;;;;;;4973059;28;20034;-74
2023/06/08 12:15:50;;;;;;;6.47;3.50;;;;;;;;;;4987690;28;20057;-74
2023/06/08 12:18:18;;;;;;;7.13;3.28;;;;;;;;;;4972776;28;20548;-75
2023/06/08 12:20:46;;;;;;;6.93;2.90;;;;;;;;;;4971676;28;20027;-76
2023/06/08 12:23:12;;;;;;;5.85;3.20;;;;;;;;;;4971832;28;20035;-75
2023/06/08 12:25:43;;;;;;;9.25;3.67;;;;;;;;;;4969104;28;20370;-74
2023/06/08 12:28:17;;;;;;;6.75;3.53;;;;;;;;;;4972849;28;20057;-74
2023/06/08 12:30:43;;;;;;;4.63;3.20;;;;;;;;;;4972615;28;20031;-73
2023/06/08 12:33:11;;;;;;;8.63;3.33;;;;;;;;;;4972833;28;20033;-73
2023/06/08 12:35:37;;;;;;;9.85;3.47;;;;;;;;;;4972976;28;20039;-73
2023/06/08 12:38:03;;;;;;;5.38;3.33;;;;;;;;;;4986251;28;20026;-74
2023/06/08 12:40:29;;;;;;;5.35;3.10;;;;;;;;;;4970944;28;20427;-75
2023/06/08 12:42:55;;;;;;;8.23;4.15;;;;;;;;;;4971509;28;20022;-74
2023/06/08 12:45:21;;;;;;;6.22;3.80;;;;;;;;;;4972542;28;20138;-74
2023/06/08 12:47:48;;;;;;;7.47;3.78;;;;;;;;;;4972391;28;20026;-75
2023/06/08 12:50:17;;;;;;;6.28;3.20;;;;;;;;;;4972384;28;20038;-73
2023/06/08 12:52:44;;;;;;;5.63;3.28;;;;;;;;;;4972830;28;20061;-74
2023/06/08 12:55:10;;;;;;;9.60;3.72;;;;;;;;;;4972407;28;20126;-74
2023/06/08 12:57:36;;;;;;;4.63;3.20;;;;;;;;;;4972407;28;20054;-74
2023/06/08 13:00:06;;;;;;;5.47;3.30;;;;;;;;;;4973984;28;20035;-74
2023/06/08 13:02:32;;;;;;;7.03;3.58;;;;;;;;;;4975476;28;20111;-76
2023/06/08 13:04:58;;;;;;;6.55;3.45;;;;;;;;;;4976660;28;20040;-75
2023/06/08 13:07:24;;;;;;;6.03;3.60;;;;;;;;;;4977070;28;20444;-75
2023/06/08 13:09:52;;;;;;;5.20;3.35;;;;;;;;;;4976546;28;20023;-76
2023/06/08 13:12:18;;;;;;;4.47;3.30;;;;;;;;;;4975038;28;20034;-74
2023/06/08 13:14:44;;;;;;;4.45;3.22;;;;;;;;;;4976249;28;20102;-75
2023/06/08 13:17:10;;;;;;;5.47;3.20;;;;;;;;;;4976297;28;20672;-74
2023/06/08 13:19:36;;;;;;;4.28;3.28;;;;;;;;;;4968145;28;20472;-74
2023/06/08 13:22:02;;;;;;;6.35;3.70;;;;;;;;;;4975101;28;20046;-75
2023/06/08 13:24:28;;;;;;;5.90;3.40;;;;;;;;;;4976164;28;20026;-74
2023/06/08 13:26:54;;;;;;;6.55;3.90;;;;;;;;;;4975008;28;20038;-74
2023/06/08 13:29:21;;;;;;;6.72;3.47;;;;;;;;;;4974680;28;20031;-75
2023/06/08 13:31:47;;;;;;;5.35;3.92;;;;;;;;;;4973224;28;20031;-74
2023/06/08 13:34:14;;;;;;;7.13;3.65;;;;;;;;;;4987971;28;20042;-75
2023/06/08 13:36:41;;;;;;;7.07;3.70;;;;;;;;;;4955776;28;20042;-73
2023/06/08 13:39:07;;;;;;;9.63;3.55;;;;;;;;;;4971678;28;20039;-75
2023/06/08 13:41:35;;;;;;;5.65;3.30;;;;;;;;;;4973844;28;20472;-76
2023/06/08 13:44:04;;;;;;;10.13;4.03;;;;;;;;;;4976869;28;20031;-74
2023/06/08 13:46:31;;;;;;;6.55;3.80;;;;;;;;;;4977491;28;20030;-75
2023/06/08 13:48:56;;;;;;;6.25;3.53;;;;;;;;;;4974612;28;20563;-75
2023/06/08 13:51:24;;;;;;;7.13;3.47;;;;;;;;;;4975387;28;20039;-74
2023/06/08 13:53:53;;;;;;;6.68;3.72;;;;;;;;;;4975886;28;20094;-75
2023/06/08 13:56:20;;;;;;;8.05;3.80;;;;;;;;;;4975725;28;20113;-74
2023/06/08 13:58:45;;;;;;;5.97;3.55;;;;;;;;;;4974145;28;20050;-73
2023/06/08 14:01:11;;;;;;;6.72;4.97;;;;;;;;;;4975048;28;20118;-74
2023/06/08 14:03:40;;;;;;;6.57;4.30;;;;;;;;;;4994715;28;20502;-74
2023/06/08 14:06:23;;;;;;;5.82;3.42;;;;;;;;;;4994476;28;20061;-74
2023/06/08 14:08:49;;;;;;;5.63;3.55;;;;;;;;;;4994195;28;20486;-75
2023/06/08 14:11:15;;;;;;;5.25;3.80;;;;;;;;;;4975136;28;20117;-75
2023/06/08 14:13:41;;;;;;;5.20;3.20;;;;;;;;;;4975433;28;20119;-76
2023/06/08 14:16:10;;;;;;;7.35;3.80;;;;;;;;;;4975100;28;20445;-75
2023/06/08 14:18:36;;;;;;;8.40;3.92;;;;;;;;;;4975078;28;20105;-76
2023/06/08 14:21:02;;;;;;;8.95;3.70;;;;;;;;;;4974763;28;20568;-76
2023/06/08 14:23:28;;;;;;;5.20;3.80;;;;;;;;;;4974868;28;20042;-74
2023/06/08 14:25:54;;;;;;;6.47;3.63;;;;;;;;;;4988632;28;20034;-76
2023/06/08 14:28:20;;;;;;;6.57;3.55;;;;;;;;;;4992776;28;20034;-76
2023/06/08 14:30:45;;;;;;;5.20;3.42;;;;;;;;;;4990408;28;20061;-76
2023/06/08 14:33:11;;;;;;;7.85;3.60;;;;;;;;;;4974288;28;20046;-75
2023/06/08 14:35:38;;;;;;;5.35;3.78;;;;;;;;;;4974506;28;20081;-75
2023/06/08 14:38:05;;;;;;;10.80;4.25;;;;;;;;;;4974297;28;20108;-74
2023/06/08 14:40:31;;;;;;;6.97;3.42;;;;;;;;;;4979137;28;20052;-74
2023/06/08 14:42:57;;;;;;;9.93;3.97;;;;;;;;;;4969657;28;20085;-75
2023/06/08 14:45:23;;;;;;;7.53;3.95;;;;;;;;;;4974107;28;20038;-75
2023/06/08 14:47:48;;;;;;;10.07;4.13;;;;;;;;;;4974416;28;20061;-74